sensor_id;sensor_type;location;lat;lon;timestamp;temperature;humidity
21312;DHT22;18076;52.154;10.570;2023-07-31T00:00:05;16.70;99.90
21312;DHT22;18076;52.154;10.570;2023-07-31T00:02:30;16.70;99.90
21312;DHT22;18076;52.154;10.570;2023-07-31T00:04:56;16.70;99.90
21312;DHT22;18076;52.154;10.570;2023-07-31T00:07:22;16.70;99.90
21312;DHT22;18076;52.154;10.570;2023-07-31T00:09:47;16.70;99.90
21312;DHT22;18076;52.154;10.570;2023-07-31T00:12:13;16.70;99.90
21312;DHT22;18076;52.154;10.570;2023-07-31T00:14:38;16.70;99.90
21312;DHT22;18076;52.154;10.570;2023-07-31T00:17:04;16.60;99.90
21312;DHT22;18076;52.154;10.570;2023-07-31T00:19:29;16.60;99.90
21312;DHT22;18076;52.154;10.570;2023-07-31T00:21:55;16.50;99.90
21312;DHT22;18076;52.154;10.570;2023-07-31T00:24:20;16.50;99.90
21312;DHT22;18076;52.154;10.570;2023-07-31T00:26:46;16.50;99.90
21312;DHT22;18076;52.154;10.570;2023-07-31T00:29:11;16.50;99.90
21312;DHT22;18076;52.154;10.570;2023-07-31T00:31:37;16.50;99.90
21312;DHT22;18076;52.154;10.570;2023-07-31T00:34:02;16.50;99.90
21312;DHT22;18076;52.154;10.570;2023-07-31T00:36:28;16.50;99.90
21312;DHT22;18076;52.154;10.570;2023-07-31T00:38:53;16.50;99.90
21312;DHT22;18076;52.154;10.570;2023-07-31T00:41:19;16.50;99.90
21312;DHT22;18076;52.154;10.570;2023-07-31T00:43:44;16.40;99.90
21312;DHT22;18076;52.154;10.570;2023-07-31T00:46:10;16.40;99.90
21312;DHT22;18076;52.154;10.570;2023-07-31T00:48:35;16.40;99.90
21312;DHT22;18076;52.154;10.570;2023-07-31T00:51:02;16.40;99.90
21312;DHT22;18076;52.154;10.570;2023-07-31T00:53:27;16.40;99.90
21312;DHT22;18076;52.154;10.570;2023-07-31T00:55:53;16.40;99.90
21312;DHT22;18076;52.154;10.570;2023-07-31T00:58:19;16.40;99.90
21312;DHT22;18076;52.154;10.570;2023-07-31T01:00:44;16.40;99.90
21312;DHT22;18076;52.154;10.570;2023-07-31T01:03:10;16.40;99.90
21312;DHT22;18076;52.154;10.570;2023-07-31T01:08:25;16.40;99.90
21312;DHT22;18076;52.154;10.570;2023-07-31T01:10:55;16.40;99.90
21312;DHT22;18076;52.154;10.570;2023-07-31T01:13:21;16.50;99.90
21312;DHT22;18076;52.154;10.570;2023-07-31T01:15:47;16.50;99.90
21312;DHT22;18076;52.154;10.570;2023-07-31T01:18:12;16.40;99.90
21312;DHT22;18076;52.154;10.570;2023-07-31T01:20:38;16.40;99.90
21312;DHT22;18076;52.154;10.570;2023-07-31T01:28:11;16.30;99.90
21312;DHT22;18076;52.154;10.570;2023-07-31T01:30:41;16.30;99.90
21312;DHT22;18076;52.154;10.570;2023-07-31T01:33:07;16.30;99.90
21312;DHT22;18076;52.154;10.570;2023-07-31T01:35:34;16.30;99.90
21312;DHT22;18076;52.154;10.570;2023-07-31T01:37:59;16.30;99.90
21312;DHT22;18076;52.154;10.570;2023-07-31T01:40:25;16.40;99.90
21312;DHT22;18076;52.154;10.570;2023-07-31T01:42:50;16.40;99.90
21312;DHT22;18076;52.154;10.570;2023-07-31T01:45:16;16.40;99.90
21312;DHT22;18076;52.154;10.570;2023-07-31T01:47:41;16.30;99.90
21312;DHT22;18076;52.154;10.570;2023-07-31T01:50:07;16.30;99.90
21312;DHT22;18076;52.154;10.570;2023-07-31T01:52:32;16.30;99.90
21312;DHT22;18076;52.154;10.570;2023-07-31T01:54:58;16.30;99.90
21312;DHT22;18076;52.154;10.570;2023-07-31T01:57:23;16.30;99.90
21312;DHT22;18076;52.154;10.570;2023-07-31T01:59:49;16.30;99.90
21312;DHT22;18076;52.154;10.570;2023-07-31T02:02:15;16.30;99.90
21312;DHT22;18076;52.154;10.570;2023-07-31T02:04:40;16.20;99.90
21312;DHT22;18076;52.154;10.570;2023-07-31T02:07:06;16.20;99.90
21312;DHT22;18076;52.154;10.570;2023-07-31T02:09:32;16.20;99.90
21312;DHT22;18076;52.154;10.570;2023-07-31T02:11:57;16.20;99.90
21312;DHT22;18076;52.154;10.570;2023-07-31T02:14:22;16.20;99.90
21312;DHT22;18076;52.154;10.570;2023-07-31T02:16:48;16.20;99.90
21312;DHT22;18076;52.154;10.570;2023-07-31T02:19:14;16.10;99.90
21312;DHT22;18076;52.154;10.570;2023-07-31T02:21:39;16.10;99.90
21312;DHT22;18076;52.154;10.570;2023-07-31T02:24:05;16.10;99.90
21312;DHT22;18076;52.154;10.570;2023-07-31T02:26:30;16.10;99.90
21312;DHT22;18076;52.154;10.570;2023-07-31T02:28:56;16.10;99.90
21312;DHT22;18076;52.154;10.570;2023-07-31T02:31:21;16.10;99.90
21312;DHT22;18076;52.154;10.570;2023-07-31T02:33:47;16.10;99.90
21312;DHT22;18076;52.154;10.570;2023-07-31T02:36:12;16.00;99.90
21312;DHT22;18076;52.154;10.570;2023-07-31T02:38:38;16.00;99.90
21312;DHT22;18076;52.154;10.570;2023-07-31T02:41:03;16.00;99.90
21312;DHT22;18076;52.154;10.570;2023-07-31T02:43:29;15.90;99.90
21312;DHT22;18076;52.154;10.570;2023-07-31T02:45:54;16.00;99.90
21312;DHT22;18076;52.154;10.570;2023-07-31T02:48:20;16.00;99.90
21312;DHT22;18076;52.154;10.570;2023-07-31T02:50:47;16.10;99.90
21312;DHT22;18076;52.154;10.570;2023-07-31T02:53:12;16.10;99.90
21312;DHT22;18076;52.154;10.570;2023-07-31T02:55:38;16.10;99.90
21312;DHT22;18076;52.154;10.570;2023-07-31T02:58:04;16.10;99.90
21312;DHT22;18076;52.154;10.570;2023-07-31T03:00:29;16.10;99.90
21312;DHT22;18076;52.154;10.570;2023-07-31T03:02:55;16.00;99.90
21312;DHT22;18076;52.154;10.570;2023-07-31T03:05:20;16.00;99.90
21312;DHT22;18076;52.154;10.570;2023-07-31T03:07:46;16.00;99.90
21312;DHT22;18076;52.154;10.570;2023-07-31T03:10:11;16.00;99.90
21312;DHT22;18076;52.154;10.570;2023-07-31T03:12:37;16.00;99.90
21312;DHT22;18076;52.154;10.570;2023-07-31T03:15:02;16.00;99.90
21312;DHT22;18076;52.154;10.570;2023-07-31T03:17:28;16.00;99.90
21312;DHT22;18076;52.154;10.570;2023-07-31T03:19:54;16.00;99.90
21312;DHT22;18076;52.154;10.570;2023-07-31T03:22:19;15.90;99.90
21312;DHT22;18076;52.154;10.570;2023-07-31T03:24:45;15.90;99.90
21312;DHT22;18076;52.154;10.570;2023-07-31T03:27:10;15.90;99.90
21312;DHT22;18076;52.154;10.570;2023-07-31T03:29:36;15.90;99.90
21312;DHT22;18076;52.154;10.570;2023-07-31T03:32:01;15.90;99.90
21312;DHT22;18076;52.154;10.570;2023-07-31T03:34:27;15.90;99.90
21312;DHT22;18076;52.154;10.570;2023-07-31T03:36:54;15.90;99.90
21312;DHT22;18076;52.154;10.570;2023-07-31T03:39:20;15.90;99.90
21312;DHT22;18076;52.154;10.570;2023-07-31T03:41:45;15.90;99.90
21312;DHT22;18076;52.154;10.570;2023-07-31T03:44:11;15.90;99.90
21312;DHT22;18076;52.154;10.570;2023-07-31T03:46:36;15.90;99.90
21312;DHT22;18076;52.154;10.570;2023-07-31T03:49:02;15.90;99.90
21312;DHT22;18076;52.154;10.570;2023-07-31T03:51:27;15.80;99.90
21312;DHT22;18076;52.154;10.570;2023-07-31T03:53:53;15.90;99.90
21312;DHT22;18076;52.154;10.570;2023-07-31T03:56:18;15.80;99.90
21312;DHT22;18076;52.154;10.570;2023-07-31T03:58:44;15.80;99.90
21312;DHT22;18076;52.154;10.570;2023-07-31T04:01:09;15.80;99.90
21312;DHT22;18076;52.154;10.570;2023-07-31T04:03:35;15.80;99.90
21312;DHT22;18076;52.154;10.570;2023-07-31T04:06:00;15.80;99.90
21312;DHT22;18076;52.154;10.570;2023-07-31T04:08:26;15.80;99.90
21312;DHT22;18076;52.154;10.570;2023-07-31T04:10:51;15.80;99.90
21312;DHT22;18076;52.154;10.570;2023-07-31T04:13:17;15.80;99.90
21312;DHT22;18076;52.154;10.570;2023-07-31T04:15:43;15.70;99.90
21312;DHT22;18076;52.154;10.570;2023-07-31T04:18:12;15.80;99.90
21312;DHT22;18076;52.154;10.570;2023-07-31T04:20:38;15.70;99.90
21312;DHT22;18076;52.154;10.570;2023-07-31T04:23:03;15.70;99.90
21312;DHT22;18076;52.154;10.570;2023-07-31T04:25:29;15.70;99.90
21312;DHT22;18076;52.154;10.570;2023-07-31T04:27:54;15.70;99.90
21312;DHT22;18076;52.154;10.570;2023-07-31T04:30:20;15.60;99.90
21312;DHT22;18076;52.154;10.570;2023-07-31T04:32:45;15.60;99.90
21312;DHT22;18076;52.154;10.570;2023-07-31T04:35:11;15.50;99.90
21312;DHT22;18076;52.154;10.570;2023-07-31T04:37:36;15.50;99.90
21312;DHT22;18076;52.154;10.570;2023-07-31T04:40:03;15.50;99.90
21312;DHT22;18076;52.154;10.570;2023-07-31T04:42:28;15.50;99.90
21312;DHT22;18076;52.154;10.570;2023-07-31T04:44:54;15.40;99.90
21312;DHT22;18076;52.154;10.570;2023-07-31T04:47:19;15.30;99.90
21312;DHT22;18076;52.154;10.570;2023-07-31T04:49:45;15.30;99.90
21312;DHT22;18076;52.154;10.570;2023-07-31T04:52:10;15.20;99.90
21312;DHT22;18076;52.154;10.570;2023-07-31T04:54:36;15.20;99.90
21312;DHT22;18076;52.154;10.570;2023-07-31T04:57:01;15.20;99.90
21312;DHT22;18076;52.154;10.570;2023-07-31T04:59:27;15.20;99.90
21312;DHT22;18076;52.154;10.570;2023-07-31T05:01:52;15.10;99.90
21312;DHT22;18076;52.154;10.570;2023-07-31T05:04:18;15.20;99.90
21312;DHT22;18076;52.154;10.570;2023-07-31T05:06:43;15.20;99.90
21312;DHT22;18076;52.154;10.570;2023-07-31T05:09:09;15.20;99.90
21312;DHT22;18076;52.154;10.570;2023-07-31T05:11:35;15.20;99.90
21312;DHT22;18076;52.154;10.570;2023-07-31T05:14:01;15.20;99.90
21312;DHT22;18076;52.154;10.570;2023-07-31T05:16:26;15.30;99.90
21312;DHT22;18076;52.154;10.570;2023-07-31T05:18:52;15.30;99.90
21312;DHT22;18076;52.154;10.570;2023-07-31T05:21:17;15.30;99.90
21312;DHT22;18076;52.154;10.570;2023-07-31T05:23:43;15.30;99.90
21312;DHT22;18076;52.154;10.570;2023-07-31T05:26:08;15.40;99.90
21312;DHT22;18076;52.154;10.570;2023-07-31T05:28:37;15.40;99.90
21312;DHT22;18076;52.154;10.570;2023-07-31T05:31:03;15.50;99.90
21312;DHT22;18076;52.154;10.570;2023-07-31T05:33:29;15.50;99.90
21312;DHT22;18076;52.154;10.570;2023-07-31T05:35:54;15.50;99.90
21312;DHT22;18076;52.154;10.570;2023-07-31T05:38:20;15.50;99.90
21312;DHT22;18076;52.154;10.570;2023-07-31T05:40:46;15.60;99.90
21312;DHT22;18076;52.154;10.570;2023-07-31T05:43:12;15.60;99.90
21312;DHT22;18076;52.154;10.570;2023-07-31T05:45:37;15.60;99.90
21312;DHT22;18076;52.154;10.570;2023-07-31T05:48:03;15.50;99.90
21312;DHT22;18076;52.154;10.570;2023-07-31T05:50:29;15.60;99.90
21312;DHT22;18076;52.154;10.570;2023-07-31T05:52:55;15.60;99.90
21312;DHT22;18076;52.154;10.570;2023-07-31T05:55:21;15.70;99.90
21312;DHT22;18076;52.154;10.570;2023-07-31T05:57:47;15.80;99.90
21312;DHT22;18076;52.154;10.570;2023-07-31T06:00:13;15.80;99.90
21312;DHT22;18076;52.154;10.570;2023-07-31T06:02:39;15.90;99.90
21312;DHT22;18076;52.154;10.570;2023-07-31T06:05:04;15.90;99.90
21312;DHT22;18076;52.154;10.570;2023-07-31T06:07:31;15.90;99.90
21312;DHT22;18076;52.154;10.570;2023-07-31T06:09:57;16.00;99.90
21312;DHT22;18076;52.154;10.570;2023-07-31T06:12:27;16.00;99.90
21312;DHT22;18076;52.154;10.570;2023-07-31T06:14:52;16.10;99.90
21312;DHT22;18076;52.154;10.570;2023-07-31T06:17:18;16.10;99.90
21312;DHT22;18076;52.154;10.570;2023-07-31T06:19:43;16.10;99.90
21312;DHT22;18076;52.154;10.570;2023-07-31T06:22:09;16.20;99.90
21312;DHT22;18076;52.154;10.570;2023-07-31T06:24:35;16.30;99.90
21312;DHT22;18076;52.154;10.570;2023-07-31T06:27:00;16.30;99.90
21312;DHT22;18076;52.154;10.570;2023-07-31T06:29:28;16.40;99.90
21312;DHT22;18076;52.154;10.570;2023-07-31T06:31:53;16.50;99.90
21312;DHT22;18076;52.154;10.570;2023-07-31T06:34:19;16.50;99.90
21312;DHT22;18076;52.154;10.570;2023-07-31T06:36:44;16.60;99.90
21312;DHT22;18076;52.154;10.570;2023-07-31T06:39:10;16.60;99.90
21312;DHT22;18076;52.154;10.570;2023-07-31T06:41:35;16.70;99.90
21312;DHT22;18076;52.154;10.570;2023-07-31T06:44:01;16.80;99.90
21312;DHT22;18076;52.154;10.570;2023-07-31T06:46:26;16.80;99.90
21312;DHT22;18076;52.154;10.570;2023-07-31T06:48:52;16.80;99.90
21312;DHT22;18076;52.154;10.570;2023-07-31T06:51:21;16.80;99.90
21312;DHT22;18076;52.154;10.570;2023-07-31T06:53:47;16.70;99.90
21312;DHT22;18076;52.154;10.570;2023-07-31T06:56:13;16.70;99.90
21312;DHT22;18076;52.154;10.570;2023-07-31T06:58:38;16.80;99.90
21312;DHT22;18076;52.154;10.570;2023-07-31T07:01:04;16.90;99.90
21312;DHT22;18076;52.154;10.570;2023-07-31T07:03:30;16.80;99.90
21312;DHT22;18076;52.154;10.570;2023-07-31T07:05:55;16.80;99.90
21312;DHT22;18076;52.154;10.570;2023-07-31T07:08:21;16.80;99.90
21312;DHT22;18076;52.154;10.570;2023-07-31T07:10:47;16.80;99.90
21312;DHT22;18076;52.154;10.570;2023-07-31T07:13:13;16.80;99.90
21312;DHT22;18076;52.154;10.570;2023-07-31T07:15:38;16.80;99.90
21312;DHT22;18076;52.154;10.570;2023-07-31T07:18:04;16.80;99.90
21312;DHT22;18076;52.154;10.570;2023-07-31T07:20:29;16.80;99.90
21312;DHT22;18076;52.154;10.570;2023-07-31T07:22:55;16.80;99.90
21312;DHT22;18076;52.154;10.570;2023-07-31T07:25:21;16.90;99.90
21312;DHT22;18076;52.154;10.570;2023-07-31T07:27:46;16.90;99.90
21312;DHT22;18076;52.154;10.570;2023-07-31T07:30:12;16.80;99.90
21312;DHT22;18076;52.154;10.570;2023-07-31T07:32:39;16.80;99.90
21312;DHT22;18076;52.154;10.570;2023-07-31T07:35:05;16.80;99.90
21312;DHT22;18076;52.154;10.570;2023-07-31T07:37:30;16.90;99.90
21312;DHT22;18076;52.154;10.570;2023-07-31T07:39:56;16.90;99.90
21312;DHT22;18076;52.154;10.570;2023-07-31T07:42:25;16.90;99.90
21312;DHT22;18076;52.154;10.570;2023-07-31T07:44:51;16.90;99.90
21312;DHT22;18076;52.154;10.570;2023-07-31T08:11:07;17.40;99.90
21312;DHT22;18076;52.154;10.570;2023-07-31T08:13:33;17.30;99.90
21312;DHT22;18076;52.154;10.570;2023-07-31T08:16:02;17.30;99.90
21312;DHT22;18076;52.154;10.570;2023-07-31T08:18:28;17.40;99.90
21312;DHT22;18076;52.154;10.570;2023-07-31T08:20:54;17.40;99.90
21312;DHT22;18076;52.154;10.570;2023-07-31T08:23:22;17.40;99.90
21312;DHT22;18076;52.154;10.570;2023-07-31T08:25:52;17.50;99.90
21312;DHT22;18076;52.154;10.570;2023-07-31T08:28:22;17.60;99.90
21312;DHT22;18076;52.154;10.570;2023-07-31T08:30:56;17.60;99.90
21312;DHT22;18076;52.154;10.570;2023-07-31T08:33:22;17.60;99.90
21312;DHT22;18076;52.154;10.570;2023-07-31T08:35:47;17.50;99.90
21312;DHT22;18076;52.154;10.570;2023-07-31T08:38:13;17.50;99.90
21312;DHT22;18076;52.154;10.570;2023-07-31T08:40:39;17.50;99.90
21312;DHT22;18076;52.154;10.570;2023-07-31T08:43:05;17.60;99.90
21312;DHT22;18076;52.154;10.570;2023-07-31T08:45:31;17.60;99.90
21312;DHT22;18076;52.154;10.570;2023-07-31T08:47:58;17.60;99.90
21312;DHT22;18076;52.154;10.570;2023-07-31T08:50:30;17.60;99.90
21312;DHT22;18076;52.154;10.570;2023-07-31T08:52:56;17.50;99.90
21312;DHT22;18076;52.154;10.570;2023-07-31T08:55:21;17.50;99.90
21312;DHT22;18076;52.154;10.570;2023-07-31T08:57:50;17.50;99.90
21312;DHT22;18076;52.154;10.570;2023-07-31T09:00:16;17.60;99.90
21312;DHT22;18076;52.154;10.570;2023-07-31T09:02:52;17.50;99.90
21312;DHT22;18076;52.154;10.570;2023-07-31T09:05:19;17.50;99.90
21312;DHT22;18076;52.154;10.570;2023-07-31T09:07:47;17.50;99.90
21312;DHT22;18076;52.154;10.570;2023-07-31T09:10:12;17.50;99.90
21312;DHT22;18076;52.154;10.570;2023-07-31T09:12:38;17.50;99.90
21312;DHT22;18076;52.154;10.570;2023-07-31T09:15:04;17.60;99.90
21312;DHT22;18076;52.154;10.570;2023-07-31T09:17:31;17.50;99.90
21312;DHT22;18076;52.154;10.570;2023-07-31T09:19:57;17.50;99.90
21312;DHT22;18076;52.154;10.570;2023-07-31T09:25:19;17.70;99.90
21312;DHT22;18076;52.154;10.570;2023-07-31T09:27:48;17.80;99.90
21312;DHT22;18076;52.154;10.570;2023-07-31T09:30:17;17.70;99.90
21312;DHT22;18076;52.154;10.570;2023-07-31T09:32:44;17.70;99.90
21312;DHT22;18076;52.154;10.570;2023-07-31T09:35:27;17.70;99.90
21312;DHT22;18076;52.154;10.570;2023-07-31T09:37:53;17.70;99.90
21312;DHT22;18076;52.154;10.570;2023-07-31T09:40:26;17.70;99.90
21312;DHT22;18076;52.154;10.570;2023-07-31T09:42:53;17.80;99.90
21312;DHT22;18076;52.154;10.570;2023-07-31T09:45:18;17.80;99.90
21312;DHT22;18076;52.154;10.570;2023-07-31T09:47:47;17.80;99.90
21312;DHT22;18076;52.154;10.570;2023-07-31T09:50:16;17.80;99.90
21312;DHT22;18076;52.154;10.570;2023-07-31T09:52:43;17.80;99.90
21312;DHT22;18076;52.154;10.570;2023-07-31T09:55:09;17.80;99.90
21312;DHT22;18076;52.154;10.570;2023-07-31T09:57:42;17.80;99.90
21312;DHT22;18076;52.154;10.570;2023-07-31T10:00:11;17.70;99.90
21312;DHT22;18076;52.154;10.570;2023-07-31T10:02:37;17.70;99.90
21312;DHT22;18076;52.154;10.570;2023-07-31T10:05:03;17.70;99.90
21312;DHT22;18076;52.154;10.570;2023-07-31T10:07:30;17.80;99.90
21312;DHT22;18076;52.154;10.570;2023-07-31T10:09:57;17.90;99.90
21312;DHT22;18076;52.154;10.570;2023-07-31T10:12:23;17.90;99.90
21312;DHT22;18076;52.154;10.570;2023-07-31T10:14:51;17.90;99.90
21312;DHT22;18076;52.154;10.570;2023-07-31T10:17:39;17.90;99.90
21312;DHT22;18076;52.154;10.570;2023-07-31T10:20:05;17.90;99.90
21312;DHT22;18076;52.154;10.570;2023-07-31T10:22:31;18.10;99.90
21312;DHT22;18076;52.154;10.570;2023-07-31T10:24:58;18.40;99.90
21312;DHT22;18076;52.154;10.570;2023-07-31T10:27:24;18.60;99.90
21312;DHT22;18076;52.154;10.570;2023-07-31T10:29:50;18.90;99.90
21312;DHT22;18076;52.154;10.570;2023-07-31T10:32:16;19.20;99.90
21312;DHT22;18076;52.154;10.570;2023-07-31T10:34:42;19.40;99.90
21312;DHT22;18076;52.154;10.570;2023-07-31T10:37:24;19.70;99.90
21312;DHT22;18076;52.154;10.570;2023-07-31T10:40:32;19.70;99.90
21312;DHT22;18076;52.154;10.570;2023-07-31T10:42:51;19.70;99.90
21312;DHT22;18076;52.154;10.570;2023-07-31T10:45:24;19.60;99.90
21312;DHT22;18076;52.154;10.570;2023-07-31T10:48:14;19.40;99.90
21312;DHT22;18076;52.154;10.570;2023-07-31T10:50:45;19.30;99.90
21312;DHT22;18076;52.154;10.570;2023-07-31T10:53:22;19.40;99.90
21312;DHT22;18076;52.154;10.570;2023-07-31T10:55:48;19.40;99.90
21312;DHT22;18076;52.154;10.570;2023-07-31T10:58:18;19.40;99.90
21312;DHT22;18076;52.154;10.570;2023-07-31T11:00:49;19.20;99.90
21312;DHT22;18076;52.154;10.570;2023-07-31T11:03:15;19.10;99.90
21312;DHT22;18076;52.154;10.570;2023-07-31T11:08:11;19.00;99.90
21312;DHT22;18076;52.154;10.570;2023-07-31T11:10:37;19.20;99.90
21312;DHT22;18076;52.154;10.570;2023-07-31T11:13:05;19.40;99.90
21312;DHT22;18076;52.154;10.570;2023-07-31T11:15:31;19.70;99.90
21312;DHT22;18076;52.154;10.570;2023-07-31T11:17:56;20.10;99.90
21312;DHT22;18076;52.154;10.570;2023-07-31T11:20:26;20.30;99.90
21312;DHT22;18076;52.154;10.570;2023-07-31T11:22:52;20.70;99.90
21312;DHT22;18076;52.154;10.570;2023-07-31T11:25:18;20.80;99.90
21312;DHT22;18076;52.154;10.570;2023-07-31T11:27:43;20.80;99.90
21312;DHT22;18076;52.154;10.570;2023-07-31T11:30:10;21.20;99.90
21312;DHT22;18076;52.154;10.570;2023-07-31T11:32:44;21.70;99.90
21312;DHT22;18076;52.154;10.570;2023-07-31T11:35:15;22.00;99.90
21312;DHT22;18076;52.154;10.570;2023-07-31T11:37:43;22.10;99.90
21312;DHT22;18076;52.154;10.570;2023-07-31T11:40:09;21.90;99.90
21312;DHT22;18076;52.154;10.570;2023-07-31T11:42:53;22.00;99.90
21312;DHT22;18076;52.154;10.570;2023-07-31T11:45:21;22.40;99.90
21312;DHT22;18076;52.154;10.570;2023-07-31T11:47:58;22.40;99.90
21312;DHT22;18076;52.154;10.570;2023-07-31T11:50:23;22.30;99.90
21312;DHT22;18076;52.154;10.570;2023-07-31T11:53:05;22.30;99.90
21312;DHT22;18076;52.154;10.570;2023-07-31T11:55:53;22.20;99.90
21312;DHT22;18076;52.154;10.570;2023-07-31T11:58:21;22.20;99.90
21312;DHT22;18076;52.154;10.570;2023-07-31T12:00:47;22.10;99.90
21312;DHT22;18076;52.154;10.570;2023-07-31T12:03:13;21.90;99.90
21312;DHT22;18076;52.154;10.570;2023-07-31T12:05:39;21.70;99.90
21312;DHT22;18076;52.154;10.570;2023-07-31T12:08:11;21.60;99.90
21312;DHT22;18076;52.154;10.570;2023-07-31T12:10:42;21.30;99.90
21312;DHT22;18076;52.154;10.570;2023-07-31T12:13:11;21.20;99.90
21312;DHT22;18076;52.154;10.570;2023-07-31T12:18:07;21.30;99.90
21312;DHT22;18076;52.154;10.570;2023-07-31T12:20:33;21.40;99.90
21312;DHT22;18076;52.154;10.570;2023-07-31T12:22:59;21.50;99.90
21312;DHT22;18076;52.154;10.570;2023-07-31T12:25:29;21.40;99.90
21312;DHT22;18076;52.154;10.570;2023-07-31T12:27:55;21.30;99.90
21312;DHT22;18076;52.154;10.570;2023-07-31T12:30:31;21.40;99.90
21312;DHT22;18076;52.154;10.570;2023-07-31T12:32:57;21.40;99.90
21312;DHT22;18076;52.154;10.570;2023-07-31T12:35:30;21.20;99.90
21312;DHT22;18076;52.154;10.570;2023-07-31T12:38:01;21.10;99.90
21312;DHT22;18076;52.154;10.570;2023-07-31T12:40:26;21.20;99.90
21312;DHT22;18076;52.154;10.570;2023-07-31T12:42:52;21.20;99.90
21312;DHT22;18076;52.154;10.570;2023-07-31T12:45:20;21.20;99.90
21312;DHT22;18076;52.154;10.570;2023-07-31T12:47:46;21.20;99.90
21312;DHT22;18076;52.154;10.570;2023-07-31T12:50:12;21.30;99.90
21312;DHT22;18076;52.154;10.570;2023-07-31T12:52:37;21.50;99.90
21312;DHT22;18076;52.154;10.570;2023-07-31T12:55:05;21.80;99.90
21312;DHT22;18076;52.154;10.570;2023-07-31T12:57:34;22.00;99.90
21312;DHT22;18076;52.154;10.570;2023-07-31T12:59:59;22.50;99.90
21312;DHT22;18076;52.154;10.570;2023-07-31T13:02:25;22.90;99.90
21312;DHT22;18076;52.154;10.570;2023-07-31T13:04:52;22.90;99.90
21312;DHT22;18076;52.154;10.570;2023-07-31T13:07:19;23.00;99.90
21312;DHT22;18076;52.154;10.570;2023-07-31T13:09:45;22.80;99.90
21312;DHT22;18076;52.154;10.570;2023-07-31T13:12:10;22.70;99.90
21312;DHT22;18076;52.154;10.570;2023-07-31T13:14:36;22.50;99.90
21312;DHT22;18076;52.154;10.570;2023-07-31T13:17:04;22.10;99.90
21312;DHT22;18076;52.154;10.570;2023-07-31T13:19:30;21.80;99.90
21312;DHT22;18076;52.154;10.570;2023-07-31T13:21:55;21.60;99.90
21312;DHT22;18076;52.154;10.570;2023-07-31T13:24:21;21.40;99.90
21312;DHT22;18076;52.154;10.570;2023-07-31T13:26:47;21.30;99.90
21312;DHT22;18076;52.154;10.570;2023-07-31T13:29:14;21.20;99.90
21312;DHT22;18076;52.154;10.570;2023-07-31T13:31:40;21.20;99.90
21312;DHT22;18076;52.154;10.570;2023-07-31T13:34:08;21.00;99.90
21312;DHT22;18076;52.154;10.570;2023-07-31T13:36:34;20.90;99.90
21312;DHT22;18076;52.154;10.570;2023-07-31T13:39:02;21.00;99.90
21312;DHT22;18076;52.154;10.570;2023-07-31T13:41:52;21.00;99.90
21312;DHT22;18076;52.154;10.570;2023-07-31T13:44:20;20.90;99.90
21312;DHT22;18076;52.154;10.570;2023-07-31T13:46:49;20.90;99.90
21312;DHT22;18076;52.154;10.570;2023-07-31T13:49:15;20.80;99.90
21312;DHT22;18076;52.154;10.570;2023-07-31T13:51:40;20.70;99.90
21312;DHT22;18076;52.154;10.570;2023-07-31T13:54:08;20.50;99.90
21312;DHT22;18076;52.154;10.570;2023-07-31T13:56:42;20.30;99.90
21312;DHT22;18076;52.154;10.570;2023-07-31T13:59:08;20.10;99.90
21312;DHT22;18076;52.154;10.570;2023-07-31T14:01:51;20.00;99.90
21312;DHT22;18076;52.154;10.570;2023-07-31T14:04:19;19.90;99.90
21312;DHT22;18076;52.154;10.570;2023-07-31T14:06:44;19.80;99.90
21312;DHT22;18076;52.154;10.570;2023-07-31T14:09:10;19.80;99.90
21312;DHT22;18076;52.154;10.570;2023-07-31T14:11:38;19.80;99.90
21312;DHT22;18076;52.154;10.570;2023-07-31T14:14:04;19.80;99.90
21312;DHT22;18076;52.154;10.570;2023-07-31T14:16:30;19.80;99.90
21312;DHT22;18076;52.154;10.570;2023-07-31T14:18:55;19.70;99.90
21312;DHT22;18076;52.154;10.570;2023-07-31T14:21:24;19.60;99.90
21312;DHT22;18076;52.154;10.570;2023-07-31T14:24:00;19.70;99.90
21312;DHT22;18076;52.154;10.570;2023-07-31T14:26:26;19.70;99.90
21312;DHT22;18076;52.154;10.570;2023-07-31T14:28:53;19.50;99.90
21312;DHT22;18076;52.154;10.570;2023-07-31T14:31:21;19.50;99.90
21312;DHT22;18076;52.154;10.570;2023-07-31T14:33:46;19.50;99.90
21312;DHT22;18076;52.154;10.570;2023-07-31T14:36:13;19.40;99.90
21312;DHT22;18076;52.154;10.570;2023-07-31T14:38:46;19.40;99.90
21312;DHT22;18076;52.154;10.570;2023-07-31T14:41:11;19.40;99.90
21312;DHT22;18076;52.154;10.570;2023-07-31T14:43:37;19.50;99.90
21312;DHT22;18076;52.154;10.570;2023-07-31T14:46:14;19.60;99.90
21312;DHT22;18076;52.154;10.570;2023-07-31T14:48:40;19.60;99.90
21312;DHT22;18076;52.154;10.570;2023-07-31T14:51:06;19.60;99.90
21312;DHT22;18076;52.154;10.570;2023-07-31T14:53:32;19.70;99.90
21312;DHT22;18076;52.154;10.570;2023-07-31T14:55:57;19.80;99.90
21312;DHT22;18076;52.154;10.570;2023-07-31T14:58:23;19.90;99.90
21312;DHT22;18076;52.154;10.570;2023-07-31T15:00:49;20.10;99.90
21312;DHT22;18076;52.154;10.570;2023-07-31T15:03:14;20.30;99.90
21312;DHT22;18076;52.154;10.570;2023-07-31T15:05:40;20.30;99.90
21312;DHT22;18076;52.154;10.570;2023-07-31T15:08:05;20.40;99.90
21312;DHT22;18076;52.154;10.570;2023-07-31T15:10:31;20.40;99.90
21312;DHT22;18076;52.154;10.570;2023-07-31T15:12:59;20.40;99.90
21312;DHT22;18076;52.154;10.570;2023-07-31T15:15:26;20.30;99.90
21312;DHT22;18076;52.154;10.570;2023-07-31T15:17:52;20.40;99.90
21312;DHT22;18076;52.154;10.570;2023-07-31T15:20:25;20.30;99.90
21312;DHT22;18076;52.154;10.570;2023-07-31T15:22:52;20.40;99.90
21312;DHT22;18076;52.154;10.570;2023-07-31T15:25:18;20.50;99.90
21312;DHT22;18076;52.154;10.570;2023-07-31T15:27:43;20.50;99.90
21312;DHT22;18076;52.154;10.570;2023-07-31T15:30:09;20.40;99.90
21312;DHT22;18076;52.154;10.570;2023-07-31T15:32:36;20.40;99.90
21312;DHT22;18076;52.154;10.570;2023-07-31T15:35:02;20.30;99.90
21312;DHT22;18076;52.154;10.570;2023-07-31T15:37:28;20.10;99.90
21312;DHT22;18076;52.154;10.570;2023-07-31T15:39:53;20.10;99.90
21312;DHT22;18076;52.154;10.570;2023-07-31T15:42:19;20.10;99.90
21312;DHT22;18076;52.154;10.570;2023-07-31T15:44:44;20.20;99.90
21312;DHT22;18076;52.154;10.570;2023-07-31T15:47:10;20.40;99.90
21312;DHT22;18076;52.154;10.570;2023-07-31T15:49:35;20.60;99.90
21312;DHT22;18076;52.154;10.570;2023-07-31T15:52:01;20.70;99.90